Time;durP1;ratioP1;P1;durP2;ratioP2;P2;SDS_P1;SDS_P2;PMS_P1;PMS_P2;Temp;Humidity;BMP_temperature;BMP_pressure;BME280_temperature;BME280_humidity;BME280_pressure;Samples;Min_cycle;Max_cycle;Signal;HPM_P1;HPM_P2
2022/03/07 00:00:40;;;;;;;32.25;17.30;;;;;;;;;;5029862;28;20041;-80
2022/03/07 00:03:06;;;;;;;32.97;17.60;;;;;;;;;;5040551;28;20116;-80
2022/03/07 00:05:32;;;;;;;33.55;18.52;;;;;;;;;;5042416;28;20554;-80
2022/03/07 00:07:58;;;;;;;33.58;19.45;;;;;;;;;;5040208;28;20060;-79
2022/03/07 00:10:24;;;;;;;32.65;18.10;;;;;;;;;;5032507;28;20077;-79
2022/03/07 00:12:50;;;;;;;32.30;18.23;;;;;;;;;;5032511;28;20026;-79
2022/03/07 00:15:17;;;;;;;30.20;17.70;;;;;;;;;;5040249;28;20036;-79
2022/03/07 00:17:43;;;;;;;30.30;16.65;;;;;;;;;;5027465;28;20585;-80
2022/03/07 00:20:09;;;;;;;32.40;17.60;;;;;;;;;;5022053;28;20050;-80
2022/03/07 00:22:35;;;;;;;28.83;15.77;;;;;;;;;;5026559;28;20032;-80
2022/03/07 00:25:01;;;;;;;31.98;17.73;;;;;;;;;;5025221;28;20026;-80
2022/03/07 00:27:27;;;;;;;29.23;17.02;;;;;;;;;;5022993;28;20018;-79
2022/03/07 00:29:54;;;;;;;29.70;16.27;;;;;;;;;;5029632;28;20048;-80
2022/03/07 00:32:20;;;;;;;33.67;17.38;;;;;;;;;;5033872;28;20044;-80
2022/03/07 00:34:46;;;;;;;36.72;20.45;;;;;;;;;;5021378;28;20534;-80
2022/03/07 00:37:12;;;;;;;28.75;17.25;;;;;;;;;;5020621;28;20489;-80
2022/03/07 00:39:38;;;;;;;30.52;17.17;;;;;;;;;;5041115;28;20056;-80
2022/03/07 00:42:04;;;;;;;31.88;17.08;;;;;;;;;;5027921;28;20033;-80
2022/03/07 00:44:30;;;;;;;37.15;17.85;;;;;;;;;;5036112;28;20022;-80
2022/03/07 00:46:56;;;;;;;30.77;19.15;;;;;;;;;;5030786;28;20029;-80
2022/03/07 00:49:22;;;;;;;32.40;18.75;;;;;;;;;;5029429;28;20026;-79
2022/03/07 00:51:48;;;;;;;33.20;18.30;;;;;;;;;;5020708;28;20507;-80
2022/03/07 00:54:14;;;;;;;30.98;17.83;;;;;;;;;;5022401;28;20080;-81
2022/03/07 00:56:40;;;;;;;29.75;17.13;;;;;;;;;;5033077;28;20021;-80
2022/03/07 00:59:06;;;;;;;30.88;17.35;;;;;;;;;;5040135;28;20033;-80
2022/03/07 01:01:32;;;;;;;27.42;15.35;;;;;;;;;;5031249;28;20026;-80
2022/03/07 01:03:58;;;;;;;30.77;17.63;;;;;;;;;;5038023;28;20021;-80
2022/03/07 01:06:24;;;;;;;31.20;17.48;;;;;;;;;;5040058;28;20030;-79
2022/03/07 01:08:50;;;;;;;31.48;17.90;;;;;;;;;;5041699;28;20025;-79
2022/03/07 01:11:16;;;;;;;32.35;17.35;;;;;;;;;;5040926;28;20045;-81
2022/03/07 01:13:42;;;;;;;32.85;17.98;;;;;;;;;;5026374;28;20034;-80
2022/03/07 01:16:08;;;;;;;31.70;18.15;;;;;;;;;;5030325;28;20035;-80
2022/03/07 01:18:34;;;;;;;32.58;18.70;;;;;;;;;;5041250;28;20571;-81
2022/03/07 01:21:00;;;;;;;32.67;17.75;;;;;;;;;;5041215;28;20038;-79
2022/03/07 01:23:26;;;;;;;29.55;16.23;;;;;;;;;;5022927;28;20052;-80
2022/03/07 01:25:52;;;;;;;31.25;18.10;;;;;;;;;;5016065;28;20077;-80
2022/03/07 01:28:18;;;;;;;32.67;17.70;;;;;;;;;;5021028;28;20034;-80
2022/03/07 01:30:44;;;;;;;30.65;18.08;;;;;;;;;;5021909;28;20050;-80
2022/03/07 01:33:10;;;;;;;31.48;17.83;;;;;;;;;;5031200;28;20025;-81
2022/03/07 01:35:36;;;;;;;31.02;17.35;;;;;;;;;;5036446;28;20425;-80
2022/03/07 01:38:03;;;;;;;28.45;15.70;;;;;;;;;;5021359;28;20026;-80
2022/03/07 01:40:30;;;;;;;32.08;17.65;;;;;;;;;;5025239;28;20032;-80
2022/03/07 01:42:56;;;;;;;30.05;16.25;;;;;;;;;;5032421;28;20030;-80
2022/03/07 01:45:23;;;;;;;33.00;18.88;;;;;;;;;;5024159;28;20072;-80
2022/03/07 01:47:49;;;;;;;27.60;16.33;;;;;;;;;;5031600;28;20025;-80
2022/03/07 01:50:17;;;;;;;27.88;16.65;;;;;;;;;;5044499;28;20034;-81
2022/03/07 01:52:44;;;;;;;30.20;16.15;;;;;;;;;;5035385;28;20037;-80
2022/03/07 01:55:11;;;;;;;28.38;17.40;;;;;;;;;;5037302;28;20033;-80
2022/03/07 01:57:38;;;;;;;26.48;15.45;;;;;;;;;;5026739;28;20030;-80
2022/03/07 02:00:08;;;;;;;30.98;16.55;;;;;;;;;;5024165;28;20045;-80
2022/03/07 02:02:35;;;;;;;28.70;15.85;;;;;;;;;;5030766;28;20025;-80
2022/03/07 02:05:01;;;;;;;28.58;15.18;;;;;;;;;;5044574;28;20014;-80
2022/03/07 02:07:27;;;;;;;29.00;15.55;;;;;;;;;;5043277;28;20112;-80
2022/03/07 02:09:53;;;;;;;23.38;14.02;;;;;;;;;;5044469;28;20479;-80
2022/03/07 02:12:19;;;;;;;25.58;15.98;;;;;;;;;;5040807;28;20030;-80
2022/03/07 02:14:45;;;;;;;27.05;15.80;;;;;;;;;;5025116;28;20053;-80
2022/03/07 02:17:11;;;;;;;26.45;14.95;;;;;;;;;;5024650;28;20033;-80
2022/03/07 02:19:37;;;;;;;27.67;15.48;;;;;;;;;;5026003;28;20116;-80
2022/03/07 02:22:04;;;;;;;26.60;15.02;;;;;;;;;;5038943;28;20043;-80
2022/03/07 02:24:30;;;;;;;23.83;15.50;;;;;;;;;;5024636;28;20030;-80
2022/03/07 02:26:57;;;;;;;23.65;14.30;;;;;;;;;;5024134;28;20022;-80
2022/03/07 02:29:23;;;;;;;27.90;15.48;;;;;;;;;;5023533;28;20030;-80
2022/03/07 02:31:50;;;;;;;26.60;15.68;;;;;;;;;;5039670;28;20053;-80
2022/03/07 02:34:16;;;;;;;26.02;14.93;;;;;;;;;;5023709;28;20128;-81
2022/03/07 02:36:44;;;;;;;24.88;13.52;;;;;;;;;;5023641;28;20018;-80
2022/03/07 02:39:10;;;;;;;25.23;14.30;;;;;;;;;;5023660;28;20504;-81
2022/03/07 02:41:37;;;;;;;25.60;14.98;;;;;;;;;;5024936;28;20094;-80
2022/03/07 02:44:03;;;;;;;27.55;15.73;;;;;;;;;;5032246;28;20404;-80
2022/03/07 02:46:30;;;;;;;23.20;13.43;;;;;;;;;;5023091;28;20125;-80
2022/03/07 02:48:56;;;;;;;26.38;14.23;;;;;;;;;;5025409;28;20109;-80
2022/03/07 02:51:22;;;;;;;26.25;15.45;;;;;;;;;;5030063;28;20058;-80
2022/03/07 02:53:49;;;;;;;24.55;13.63;;;;;;;;;;5040137;28;20602;-80
2022/03/07 02:56:15;;;;;;;25.42;14.23;;;;;;;;;;5043185;28;20038;-80
2022/03/07 02:58:41;;;;;;;27.30;15.57;;;;;;;;;;5034474;28;20036;-81
2022/03/07 03:01:07;;;;;;;24.02;13.52;;;;;;;;;;5022872;28;20049;-80
2022/03/07 03:03:33;;;;;;;29.02;15.00;;;;;;;;;;5032986;28;20025;-80
2022/03/07 03:05:59;;;;;;;24.27;13.75;;;;;;;;;;5039890;28;20052;-81
2022/03/07 03:08:26;;;;;;;28.55;15.95;;;;;;;;;;5034676;28;20026;-81
2022/03/07 03:10:52;;;;;;;27.80;14.68;;;;;;;;;;5023857;28;20056;-80
2022/03/07 03:13:22;;;;;;;28.48;16.00;;;;;;;;;;5022608;28;20030;-80
2022/03/07 03:15:48;;;;;;;29.50;16.02;;;;;;;;;;5023509;28;20026;-80
2022/03/07 03:18:14;;;;;;;30.50;16.25;;;;;;;;;;5043129;28;20026;-80
2022/03/07 03:20:41;;;;;;;30.90;17.33;;;;;;;;;;5043618;28;20396;-80
2022/03/07 03:23:07;;;;;;;28.70;16.52;;;;;;;;;;5031966;28;20026;-81
2022/03/07 03:25:33;;;;;;;31.02;16.08;;;;;;;;;;5023613;28;20041;-80
2022/03/07 03:27:59;;;;;;;29.00;15.80;;;;;;;;;;5024257;28;20525;-80
2022/03/07 03:30:25;;;;;;;34.05;17.67;;;;;;;;;;5033944;28;20048;-80
2022/03/07 03:32:51;;;;;;;29.55;16.70;;;;;;;;;;5042502;28;20103;-80
2022/03/07 03:35:17;;;;;;;31.83;17.38;;;;;;;;;;5043353;28;20071;-80
2022/03/07 03:37:43;;;;;;;31.80;16.17;;;;;;;;;;5042181;28;20036;-80
2022/03/07 03:40:11;;;;;;;31.50;17.27;;;;;;;;;;5031058;28;20393;-80
2022/03/07 03:42:37;;;;;;;35.00;17.38;;;;;;;;;;5037245;28;20034;-81
2022/03/07 03:45:05;;;;;;;31.50;17.55;;;;;;;;;;5041584;28;20032;-81
2022/03/07 03:47:32;;;;;;;31.67;17.67;;;;;;;;;;5043301;28;20076;-81
2022/03/07 03:49:58;;;;;;;30.75;17.15;;;;;;;;;;5032382;28;20481;-81
2022/03/07 03:52:24;;;;;;;34.13;17.92;;;;;;;;;;5035523;28;20091;-80
2022/03/07 03:54:50;;;;;;;32.08;17.90;;;;;;;;;;5021702;28;20041;-80
2022/03/07 03:57:16;;;;;;;36.63;17.95;;;;;;;;;;5021835;28;20030;-80
2022/03/07 03:59:42;;;;;;;28.73;16.50;;;;;;;;;;5023308;28;20050;-81
2022/03/07 04:02:08;;;;;;;27.30;14.40;;;;;;;;;;5022700;28;20025;-79
2022/03/07 04:04:34;;;;;;;29.05;16.77;;;;;;;;;;5041219;28;20089;-80
2022/03/07 04:07:00;;;;;;;29.85;16.92;;;;;;;;;;5032837;28;20069;-80
2022/03/07 04:09:26;;;;;;;32.47;17.85;;;;;;;;;;5024020;28;20061;-79
2022/03/07 04:11:54;;;;;;;29.77;15.73;;;;;;;;;;5028855;28;20029;-80
2022/03/07 04:14:21;;;;;;;32.22;17.25;;;;;;;;;;5030637;28;20057;-80
2022/03/07 04:16:47;;;;;;;29.45;15.88;;;;;;;;;;5036749;28;20018;-80
2022/03/07 04:19:15;;;;;;;28.92;15.77;;;;;;;;;;5026422;28;20026;-80
2022/03/07 04:21:42;;;;;;;30.17;15.73;;;;;;;;;;5038777;28;20041;-80
2022/03/07 04:24:08;;;;;;;37.60;18.52;;;;;;;;;;5032179;28;20026;-80
2022/03/07 04:26:35;;;;;;;28.17;16.35;;;;;;;;;;5021701;28;20037;-79
2022/03/07 04:29:05;;;;;;;27.88;15.75;;;;;;;;;;5039293;28;20030;-80
2022/03/07 04:31:31;;;;;;;32.30;16.40;;;;;;;;;;5021486;28;20036;-80
2022/03/07 04:33:57;;;;;;;29.67;16.52;;;;;;;;;;5021288;28;20097;-80
2022/03/07 04:36:23;;;;;;;33.22;17.17;;;;;;;;;;5030772;28;20037;-80
2022/03/07 04:38:49;;;;;;;29.13;16.90;;;;;;;;;;5040687;28;20041;-80
2022/03/07 04:41:15;;;;;;;29.48;15.65;;;;;;;;;;5040373;28;20065;-80
2022/03/07 04:43:41;;;;;;;30.13;16.30;;;;;;;;;;5031619;28;20030;-81
2022/03/07 04:46:08;;;;;;;33.40;16.80;;;;;;;;;;5022882;28;20026;-80
2022/03/07 04:48:34;;;;;;;30.60;15.93;;;;;;;;;;5022252;28;20026;-80
2022/03/07 04:51:00;;;;;;;29.02;16.10;;;;;;;;;;5024218;28;20097;-80
2022/03/07 04:53:26;;;;;;;29.27;15.55;;;;;;;;;;5022623;28;20026;-80
2022/03/07 04:55:52;;;;;;;28.25;14.55;;;;;;;;;;5022862;28;20033;-80
2022/03/07 04:58:18;;;;;;;30.75;15.95;;;;;;;;;;5022404;28;20044;-80
2022/03/07 05:00:44;;;;;;;31.48;16.85;;;;;;;;;;5022811;28;20044;-80
2022/03/07 05:03:10;;;;;;;34.08;18.75;;;;;;;;;;5022057;28;20022;-80
2022/03/07 05:05:36;;;;;;;31.10;16.45;;;;;;;;;;5023956;28;20028;-80
2022/03/07 05:08:02;;;;;;;31.23;17.40;;;;;;;;;;5026223;28;20017;-80
2022/03/07 05:10:28;;;;;;;31.17;17.65;;;;;;;;;;5041810;28;20079;-80
2022/03/07 05:12:54;;;;;;;33.20;18.00;;;;;;;;;;5034397;28;20465;-79
2022/03/07 05:15:20;;;;;;;28.25;16.80;;;;;;;;;;5041804;28;20040;-80
2022/03/07 05:17:56;;;;;;;31.75;17.27;;;;;;;;;;5041480;28;20032;-80
2022/03/07 05:20:23;;;;;;;30.55;15.15;;;;;;;;;;5043272;28;20056;-79
2022/03/07 05:22:49;;;;;;;33.28;17.60;;;;;;;;;;5028078;28;20065;-79
2022/03/07 05:25:16;;;;;;;30.08;17.55;;;;;;;;;;5029172;28;20481;-80
2022/03/07 05:27:42;;;;;;;30.23;16.45;;;;;;;;;;5027595;28;20040;-80
2022/03/07 05:30:09;;;;;;;29.88;16.55;;;;;;;;;;5040816;28;20029;-81
2022/03/07 05:32:35;;;;;;;29.95;17.48;;;;;;;;;;5036593;28;20022;-80
2022/03/07 05:35:01;;;;;;;28.60;16.70;;;;;;;;;;5025324;28;20033;-79
2022/03/07 05:37:27;;;;;;;31.38;17.58;;;;;;;;;;5043001;28;20033;-81
2022/03/07 05:39:53;;;;;;;31.70;17.67;;;;;;;;;;5030597;28;20044;-80
2022/03/07 05:42:20;;;;;;;26.58;14.32;;;;;;;;;;5032741;28;20061;-81
2022/03/07 05:44:47;;;;;;;25.95;15.18;;;;;;;;;;5045950;28;20377;-80
2022/03/07 05:47:13;;;;;;;26.90;16.08;;;;;;;;;;5034363;28;20032;-81
2022/03/07 05:49:39;;;;;;;31.25;17.15;;;;;;;;;;5028874;28;20049;-80
2022/03/07 05:52:05;;;;;;;28.45;15.95;;;;;;;;;;5026215;28;20018;-81
2022/03/07 05:54:31;;;;;;;27.80;16.02;;;;;;;;;;5024812;28;20044;-80
2022/03/07 05:56:57;;;;;;;25.90;15.52;;;;;;;;;;5026441;28;20030;-80
2022/03/07 05:59:23;;;;;;;25.52;14.88;;;;;;;;;;5025550;28;20030;-80
2022/03/07 06:01:49;;;;;;;24.33;14.32;;;;;;;;;;5032303;28;20022;-80
2022/03/07 06:04:15;;;;;;;26.88;15.32;;;;;;;;;;5043194;28;20027;-80
2022/03/07 06:06:41;;;;;;;27.88;14.40;;;;;;;;;;5028722;28;20108;-81
2022/03/07 06:09:07;;;;;;;25.42;14.93;;;;;;;;;;5034403;28;20285;-79
2022/03/07 06:11:33;;;;;;;28.73;15.32;;;;;;;;;;5020880;28;20369;-79
2022/03/07 06:13:59;;;;;;;28.35;15.93;;;;;;;;;;5022339;28;20117;-78
2022/03/07 06:16:26;;;;;;;28.38;15.68;;;;;;;;;;5032244;28;20118;-79
2022/03/07 06:18:52;;;;;;;25.48;13.80;;;;;;;;;;5038401;28;20026;-80
2022/03/07 06:21:18;;;;;;;27.73;13.77;;;;;;;;;;5034125;28;20480;-79
2022/03/07 06:23:44;;;;;;;25.42;12.93;;;;;;;;;;5030221;28;20030;-79
2022/03/07 06:26:10;;;;;;;25.83;14.00;;;;;;;;;;5025803;28;20323;-79
2022/03/07 06:28:36;;;;;;;26.75;13.88;;;;;;;;;;5037201;28;20048;-79
2022/03/07 06:31:02;;;;;;;23.17;14.40;;;;;;;;;;5028833;28;20033;-79
2022/03/07 06:33:28;;;;;;;29.85;14.35;;;;;;;;;;5022147;28;20030;-79
2022/03/07 06:35:54;;;;;;;21.88;14.15;;;;;;;;;;5027722;28;20162;-79
2022/03/07 06:38:21;;;;;;;24.15;13.57;;;;;;;;;;5025605;28;20052;-80
2022/03/07 06:40:47;;;;;;;20.48;12.25;;;;;;;;;;5029812;28;20026;-79
2022/03/07 06:43:13;;;;;;;20.25;14.20;;;;;;;;;;5028976;28;20026;-79
2022/03/07 06:45:39;;;;;;;21.45;12.80;;;;;;;;;;5037145;28;20053;-79
2022/03/07 06:48:05;;;;;;;21.25;13.25;;;;;;;;;;5032481;28;20026;-79
2022/03/07 06:50:32;;;;;;;23.05;13.23;;;;;;;;;;5028130;28;20026;-81
2022/03/07 06:52:58;;;;;;;27.85;14.30;;;;;;;;;;5039033;28;20036;-80
2022/03/07 06:55:24;;;;;;;20.50;12.30;;;;;;;;;;5023241;28;20044;-81
2022/03/07 06:57:50;;;;;;;23.20;11.95;;;;;;;;;;5028892;28;20174;-80
2022/03/07 07:00:17;;;;;;;20.75;12.32;;;;;;;;;;5028011;28;20114;-79
2022/03/07 07:02:44;;;;;;;22.27;11.10;;;;;;;;;;5030422;28;20117;-79
2022/03/07 07:05:10;;;;;;;15.15;9.88;;;;;;;;;;5020196;28;20018;-78
2022/03/07 07:07:37;;;;;;;17.38;10.75;;;;;;;;;;5019857;28;20441;-78
2022/03/07 07:10:04;;;;;;;15.05;10.52;;;;;;;;;;5032749;28;20045;-79
2022/03/07 07:12:30;;;;;;;20.90;13.38;;;;;;;;;;5023101;28;20062;-79
2022/03/07 07:14:56;;;;;;;18.83;11.13;;;;;;;;;;5032005;28;20047;-79
2022/03/07 07:17:22;;;;;;;20.20;11.82;;;;;;;;;;5028322;28;20567;-79
2022/03/07 07:19:48;;;;;;;21.80;12.85;;;;;;;;;;5018692;28;20029;-79
2022/03/07 07:22:14;;;;;;;21.80;12.00;;;;;;;;;;5023623;28;20061;-79
2022/03/07 07:24:41;;;;;;;25.05;12.35;;;;;;;;;;5028433;28;20029;-78
2022/03/07 07:27:07;;;;;;;22.88;11.77;;;;;;;;;;5026358;28;20033;-79
2022/03/07 07:29:33;;;;;;;22.00;13.77;;;;;;;;;;5030105;28;20026;-78
2022/03/07 07:32:01;;;;;;;20.58;11.82;;;;;;;;;;5037020;28;20135;-79
2022/03/07 07:34:28;;;;;;;20.70;12.27;;;;;;;;;;5029654;28;20033;-79
2022/03/07 07:36:54;;;;;;;19.63;12.25;;;;;;;;;;5020520;28;20026;-79
2022/03/07 07:39:20;;;;;;;19.58;13.02;;;;;;;;;;5025232;28;20029;-79
2022/03/07 07:41:46;;;;;;;21.02;13.30;;;;;;;;;;5031393;28;20044;-78
2022/03/07 07:44:12;;;;;;;20.90;13.00;;;;;;;;;;5024021;28;20018;-79
2022/03/07 07:46:38;;;;;;;21.33;12.05;;;;;;;;;;5020675;28;20026;-78
2022/03/07 07:49:05;;;;;;;19.58;12.75;;;;;;;;;;5023240;28;20473;-79
2022/03/07 07:51:31;;;;;;;19.15;12.00;;;;;;;;;;5027720;28;20444;-79
2022/03/07 07:53:57;;;;;;;22.77;13.23;;;;;;;;;;5027147;28;20030;-79
2022/03/07 07:56:23;;;;;;;20.60;12.70;;;;;;;;;;5030601;28;20026;-81
2022/03/07 07:58:49;;;;;;;24.50;13.70;;;;;;;;;;5032441;28;20025;-79
2022/03/07 08:01:15;;;;;;;25.65;13.63;;;;;;;;;;5025310;28;20057;-79
2022/03/07 08:03:41;;;;;;;21.65;12.57;;;;;;;;;;5037393;28;20026;-78
2022/03/07 08:06:07;;;;;;;19.20;11.15;;;;;;;;;;5022241;28;20014;-79
2022/03/07 08:08:33;;;;;;;22.67;13.30;;;;;;;;;;5020347;28;20017;-79
2022/03/07 08:10:59;;;;;;;21.52;12.75;;;;;;;;;;5027594;28;20064;-79
2022/03/07 08:13:25;;;;;;;19.80;12.45;;;;;;;;;;5040232;28;20030;-78
2022/03/07 08:15:51;;;;;;;22.90;12.70;;;;;;;;;;5039236;28;20021;-79
2022/03/07 08:18:17;;;;;;;21.77;13.30;;;;;;;;;;5026855;28;20025;-80
2022/03/07 08:20:44;;;;;;;19.88;12.00;;;;;;;;;;5032898;28;20060;-79
2022/03/07 08:23:10;;;;;;;20.38;13.10;;;;;;;;;;5022764;28;20026;-79
2022/03/07 08:25:36;;;;;;;22.52;11.80;;;;;;;;;;5029028;28;20392;-79
2022/03/07 08:28:02;;;;;;;22.15;13.43;;;;;;;;;;5026403;28;20078;-79
2022/03/07 08:30:29;;;;;;;22.80;12.32;;;;;;;;;;5023076;28;20028;-78
2022/03/07 08:32:55;;;;;;;20.23;12.88;;;;;;;;;;5031467;28;20057;-78
2022/03/07 08:35:21;;;;;;;18.17;11.07;;;;;;;;;;5034352;28;20091;-78
2022/03/07 08:37:49;;;;;;;23.25;12.57;;;;;;;;;;5024023;28;20028;-79
2022/03/07 08:40:16;;;;;;;19.85;11.32;;;;;;;;;;5022202;28;20033;-79
2022/03/07 08:42:43;;;;;;;21.10;12.80;;;;;;;;;;5021314;28;20040;-78
2022/03/07 08:45:09;;;;;;;19.40;11.90;;;;;;;;;;5021086;28;20026;-79
2022/03/07 08:47:39;;;;;;;18.40;10.95;;;;;;;;;;5038046;28;20045;-78
2022/03/07 08:50:06;;;;;;;20.58;12.45;;;;;;;;;;5039878;28;20028;-79
2022/03/07 08:52:33;;;;;;;24.55;12.77;;;;;;;;;;5038334;28;20026;-79
2022/03/07 08:54:59;;;;;;;22.17;12.43;;;;;;;;;;5028582;28;20397;-79
2022/03/07 08:57:25;;;;;;;18.58;11.77;;;;;;;;;;5026060;28;20034;-80
2022/03/07 08:59:51;;;;;;;21.73;12.00;;;;;;;;;;5021756;28;20029;-79
2022/03/07 09:02:17;;;;;;;28.65;14.32;;;;;;;;;;5028910;28;20032;-79
2022/03/07 09:04:43;;;;;;;16.58;10.38;;;;;;;;;;5034230;28;20516;-79
2022/03/07 09:07:09;;;;;;;17.30;10.82;;;;;;;;;;5031754;28;20029;-79
2022/03/07 09:09:35;;;;;;;19.80;12.60;;;;;;;;;;5024978;28;20037;-80
2022/03/07 09:12:02;;;;;;;17.45;10.75;;;;;;;;;;5034510;28;20033;-79
2022/03/07 09:14:28;;;;;;;18.65;11.48;;;;;;;;;;5019383;28;20060;-80
2022/03/07 09:16:54;;;;;;;17.70;9.85;;;;;;;;;;5020723;28;20026;-79
2022/03/07 09:19:20;;;;;;;20.17;11.52;;;;;;;;;;5021942;28;20030;-81
2022/03/07 09:21:46;;;;;;;17.80;11.18;;;;;;;;;;5034642;28;20022;-79
2022/03/07 09:24:12;;;;;;;19.10;9.88;;;;;;;;;;5021608;28;20030;-80
2022/03/07 09:26:38;;;;;;;17.73;10.15;;;;;;;;;;5036268;28;20029;-80
2022/03/07 09:29:04;;;;;;;16.48;10.07;;;;;;;;;;5035974;28;20028;-80
2022/03/07 09:31:30;;;;;;;15.55;10.15;;;;;;;;;;5025538;28;20041;-81
2022/03/07 09:33:57;;;;;;;17.17;10.23;;;;;;;;;;5023677;28;20053;-80
2022/03/07 09:36:23;;;;;;;16.30;9.45;;;;;;;;;;5038342;28;20041;-80
2022/03/07 09:38:50;;;;;;;17.25;9.57;;;;;;;;;;5037999;28;20431;-81
2022/03/07 09:41:17;;;;;;;18.17;10.77;;;;;;;;;;5025514;28;20061;-80
2022/03/07 09:43:44;;;;;;;17.88;10.63;;;;;;;;;;5034559;28;20017;-81
2022/03/07 09:46:10;;;;;;;18.48;10.38;;;;;;;;;;5031333;28;20017;-81
2022/03/07 09:48:36;;;;;;;17.77;11.32;;;;;;;;;;5031525;28;20077;-81
2022/03/07 09:51:02;;;;;;;16.98;9.95;;;;;;;;;;5031978;28;20030;-80
2022/03/07 09:53:28;;;;;;;14.85;8.82;;;;;;;;;;5023384;28;20037;-80
2022/03/07 09:55:54;;;;;;;15.50;10.18;;;;;;;;;;5022818;28;20057;-80
2022/03/07 09:58:20;;;;;;;21.13;10.45;;;;;;;;;;5040438;28;20030;-81
2022/03/07 10:00:46;;;;;;;17.98;10.20;;;;;;;;;;5026546;28;20505;-81
2022/03/07 10:03:13;;;;;;;17.75;9.95;;;;;;;;;;5032810;28;20024;-79
2022/03/07 10:05:44;;;;;;;16.88;8.63;;;;;;;;;;5038433;28;20101;-81
2022/03/07 10:08:10;;;;;;;13.20;8.52;;;;;;;;;;5026439;28;20023;-80
2022/03/07 10:10:38;;;;;;;14.82;8.73;;;;;;;;;;5030749;28;20049;-79
2022/03/07 10:13:09;;;;;;;10.38;7.18;;;;;;;;;;5033102;28;20033;-79
2022/03/07 10:15:37;;;;;;;14.18;8.25;;;;;;;;;;5024450;28;20795;-79
2022/03/07 10:18:04;;;;;;;13.27;7.80;;;;;;;;;;5030485;28;20420;-80
2022/03/07 10:20:30;;;;;;;14.25;8.30;;;;;;;;;;5030925;28;20017;-79
2022/03/07 10:22:57;;;;;;;13.82;8.82;;;;;;;;;;5032526;28;20018;-80
2022/03/07 10:25:28;;;;;;;14.88;8.25;;;;;;;;;;5035001;28;20018;-80
2022/03/07 10:27:54;;;;;;;16.75;8.52;;;;;;;;;;5029469;28;20113;-79
2022/03/07 10:30:23;;;;;;;13.30;7.70;;;;;;;;;;5030345;28;20069;-81
2022/03/07 10:32:59;;;;;;;13.68;9.00;;;;;;;;;;5021163;28;20489;-80
2022/03/07 10:35:25;;;;;;;16.17;8.60;;;;;;;;;;5025172;28;20037;-80
2022/03/07 10:37:55;;;;;;;11.80;7.13;;;;;;;;;;5020508;28;20126;-80
2022/03/07 10:40:22;;;;;;;12.90;7.20;;;;;;;;;;5038822;28;20034;-80
2022/03/07 10:42:48;;;;;;;13.32;7.80;;;;;;;;;;5025829;28;20056;-80
2022/03/07 10:45:15;;;;;;;12.15;7.95;;;;;;;;;;5034663;28;20030;-80
2022/03/07 10:47:41;;;;;;;15.23;7.35;;;;;;;;;;5032244;28;20049;-81
2022/03/07 10:50:08;;;;;;;16.05;7.97;;;;;;;;;;5039408;28;20026;-80
2022/03/07 10:52:35;;;;;;;12.85;8.20;;;;;;;;;;5028708;28;20086;-80
2022/03/07 10:55:01;;;;;;;12.85;8.27;;;;;;;;;;5047008;28;20044;-80
2022/03/07 10:57:27;;;;;;;12.10;7.93;;;;;;;;;;5032148;28;20064;-80
2022/03/07 10:59:54;;;;;;;12.40;7.85;;;;;;;;;;5024105;28;20029;-80
2022/03/07 11:02:20;;;;;;;13.38;8.00;;;;;;;;;;5032193;28;20053;-80
2022/03/07 11:04:48;;;;;;;11.48;7.93;;;;;;;;;;5024154;28;20370;-80
2022/03/07 11:07:14;;;;;;;13.07;7.70;;;;;;;;;;5027550;28;20090;-80
2022/03/07 11:09:41;;;;;;;10.45;6.80;;;;;;;;;;5039559;28;20025;-81
2022/03/07 11:12:16;;;;;;;12.20;6.97;;;;;;;;;;5027098;28;20048;-83
2022/03/07 11:14:43;;;;;;;11.50;7.20;;;;;;;;;;5023784;28;20086;-81
2022/03/07 11:17:12;;;;;;;12.25;7.72;;;;;;;;;;5036541;28;20048;-80
2022/03/07 11:19:40;;;;;;;13.32;7.78;;;;;;;;;;5042395;28;20022;-80
2022/03/07 11:22:07;;;;;;;12.35;7.50;;;;;;;;;;5037997;28;20113;-82
2022/03/07 11:24:36;;;;;;;11.07;7.60;;;;;;;;;;5025839;28;20375;-81
2022/03/07 11:27:02;;;;;;;13.88;8.50;;;;;;;;;;5024828;28;20053;-81
2022/03/07 11:29:33;;;;;;;10.38;7.07;;;;;;;;;;5023232;28;20053;-80
2022/03/07 11:32:04;;;;;;;13.55;7.82;;;;;;;;;;5036378;28;20026;-81
2022/03/07 11:34:30;;;;;;;14.30;8.32;;;;;;;;;;5022554;28;20057;-81
2022/03/07 11:36:56;;;;;;;11.93;7.68;;;;;;;;;;5025844;28;20083;-80
2022/03/07 11:39:33;;;;;;;13.15;7.75;;;;;;;;;;5024295;28;20022;-81
2022/03/07 11:42:13;;;;;;;14.40;7.47;;;;;;;;;;5026271;28;20059;-81
2022/03/07 11:44:40;;;;;;;13.13;7.75;;;;;;;;;;5024181;28;20033;-81
2022/03/07 11:47:32;;;;;;;13.52;8.07;;;;;;;;;;5022421;28;20115;-80
2022/03/07 11:49:59;;;;;;;15.10;8.63;;;;;;;;;;5017862;28;20037;-81
2022/03/07 11:52:25;;;;;;;13.25;7.85;;;;;;;;;;5032097;28;20456;-80
2022/03/07 11:54:52;;;;;;;13.25;7.78;;;;;;;;;;5024222;28;20973;-81
2022/03/07 11:57:19;;;;;;;15.52;8.30;;;;;;;;;;5029901;28;20045;-80
2022/03/07 11:59:45;;;;;;;11.20;7.40;;;;;;;;;;5021420;28;20032;-82
2022/03/07 12:02:11;;;;;;;11.27;7.32;;;;;;;;;;5025390;28;20401;-83
2022/03/07 12:04:38;;;;;;;17.65;8.40;;;;;;;;;;5030053;28;20531;-81
2022/03/07 12:07:04;;;;;;;13.70;7.07;;;;;;;;;;5030005;28;20049;-81
2022/03/07 12:09:32;;;;;;;13.00;8.30;;;;;;;;;;5026888;28;20026;-81
2022/03/07 12:12:19;;;;;;;13.23;8.18;;;;;;;;;;5030991;28;20053;-81
2022/03/07 12:14:46;;;;;;;14.38;7.75;;;;;;;;;;5025053;28;20394;-82
2022/03/07 12:17:12;;;;;;;14.38;7.68;;;;;;;;;;5032818;28;20023;-81
2022/03/07 12:19:39;;;;;;;16.08;8.43;;;;;;;;;;5038940;28;20028;-81
2022/03/07 12:22:15;;;;;;;14.63;8.65;;;;;;;;;;5024457;28;20025;-82
2022/03/07 12:24:42;;;;;;;13.98;8.23;;;;;;;;;;5042068;28;20030;-81
2022/03/07 12:27:08;;;;;;;14.57;8.10;;;;;;;;;;5043907;28;20017;-81
2022/03/07 12:29:35;;;;;;;14.75;8.40;;;;;;;;;;5022461;28;20444;-80
2022/03/07 12:32:06;;;;;;;15.77;8.00;;;;;;;;;;5032858;28;20029;-81
2022/03/07 12:34:34;;;;;;;13.23;8.43;;;;;;;;;;5042107;28;20068;-82
2022/03/07 12:37:10;;;;;;;14.02;8.32;;;;;;;;;;5043796;28;20409;-82
2022/03/07 12:40:06;;;;;;;12.70;7.80;;;;;;;;;;5039112;28;20017;-81
2022/03/07 12:42:35;;;;;;;14.60;8.55;;;;;;;;;;5039346;28;20113;-81
2022/03/07 12:45:04;;;;;;;13.95;8.85;;;;;;;;;;5041062;28;20057;-82
2022/03/07 12:47:32;;;;;;;15.07;8.25;;;;;;;;;;5038285;28;20402;-81
2022/03/07 12:49:58;;;;;;;13.65;8.75;;;;;;;;;;5022225;28;20030;-82
2022/03/07 12:52:29;;;;;;;16.08;9.10;;;;;;;;;;5021792;28;20030;-82
2022/03/07 12:54:55;;;;;;;14.63;9.88;;;;;;;;;;5023172;28;20021;-83
2022/03/07 12:57:21;;;;;;;13.77;8.38;;;;;;;;;;5037697;28;20056;-82
2022/03/07 12:59:48;;;;;;;11.27;7.55;;;;;;;;;;5025052;28;20026;-81
2022/03/07 13:02:14;;;;;;;13.75;7.90;;;;;;;;;;5024540;28;20025;-81
2022/03/07 13:04:41;;;;;;;13.75;8.45;;;;;;;;;;5029354;28;20037;-82
2022/03/07 13:07:11;;;;;;;14.40;9.13;;;;;;;;;;5028955;28;20152;-81
2022/03/07 13:09:37;;;;;;;13.57;8.98;;;;;;;;;;5025215;28;20026;-81
2022/03/07 13:12:05;;;;;;;13.52;7.97;;;;;;;;;;5019980;28;20022;-82
2022/03/07 13:14:32;;;;;;;14.05;9.23;;;;;;;;;;5039054;28;20024;-81
2022/03/07 13:17:08;;;;;;;18.98;9.57;;;;;;;;;;5022246;28;20030;-82
2022/03/07 13:19:34;;;;;;;16.48;9.10;;;;;;;;;;5028381;28;20038;-81
2022/03/07 13:22:00;;;;;;;14.45;8.70;;;;;;;;;;5023355;28;20045;-81
2022/03/07 13:24:27;;;;;;;19.35;10.45;;;;;;;;;;5033129;28;20389;-80
2022/03/07 13:27:00;;;;;;;14.52;8.38;;;;;;;;;;5021902;28;20109;-82
2022/03/07 13:29:27;;;;;;;17.42;8.48;;;;;;;;;;5030242;28;20498;-80
2022/03/07 13:31:54;;;;;;;13.35;9.05;;;;;;;;;;5019823;28;20034;-81
2022/03/07 13:34:21;;;;;;;12.85;9.57;;;;;;;;;;5022951;28;20041;-80
2022/03/07 13:36:57;;;;;;;14.30;8.57;;;;;;;;;;5030660;28;20056;-82
2022/03/07 13:39:25;;;;;;;18.88;8.15;;;;;;;;;;5030871;28;20099;-81
2022/03/07 13:42:11;;;;;;;12.57;7.00;;;;;;;;;;5021272;28;20050;-81
2022/03/07 13:44:49;;;;;;;11.15;7.63;;;;;;;;;;5020200;28;20026;-80
2022/03/07 13:47:15;;;;;;;16.50;6.93;;;;;;;;;;5022979;28;20026;-82
2022/03/07 13:49:49;;;;;;;12.73;7.10;;;;;;;;;;5030743;28;20036;-81
2022/03/07 13:52:22;;;;;;;14.70;7.70;;;;;;;;;;5028940;28;20022;-80
2022/03/07 13:54:49;;;;;;;9.70;7.00;;;;;;;;;;5027563;28;20026;-81
2022/03/07 13:57:15;;;;;;;9.50;7.10;;;;;;;;;;5030372;28;20033;-80
2022/03/07 13:59:52;;;;;;;11.35;7.40;;;;;;;;;;5032581;28;20033;-81
2022/03/07 14:02:18;;;;;;;11.60;7.45;;;;;;;;;;5039165;28;20037;-80
2022/03/07 14:04:54;;;;;;;10.55;6.60;;;;;;;;;;5044219;28;20032;-81
2022/03/07 14:07:22;;;;;;;9.77;6.93;;;;;;;;;;5045818;28;20029;-80
2022/03/07 14:09:52;;;;;;;11.75;7.47;;;;;;;;;;5026620;28;20053;-81
2022/03/07 14:12:38;;;;;;;10.70;6.82;;;;;;;;;;5040938;28;20026;-81
2022/03/07 14:15:11;;;;;;;10.07;7.03;;;;;;;;;;5035596;28;20026;-80
2022/03/07 14:17:37;;;;;;;;;;;;;;;;;;5043300;28;20034;-80
2022/03/07 14:20:07;;;;;;;11.70;5.93;;;;;;;;;;5041484;28;19913;-81